sensor_id;sensor_type;location;lat;lon;timestamp;P1;durP1;ratioP1;P2;durP2;ratioP2
48777;SDS011;34578;0.000;0.000;2023-08-30T00:04:29;2.58;;;1.58;;
48777;SDS011;34578;0.000;0.000;2023-08-30T00:09:29;2.45;;;1.40;;
48777;SDS011;34578;0.000;0.000;2023-08-30T00:14:30;2.20;;;1.27;;
48777;SDS011;34578;0.000;0.000;2023-08-30T00:19:30;1.83;;;1.33;;
48777;SDS011;34578;0.000;0.000;2023-08-30T00:24:31;1.40;;;1.10;;
48777;SDS011;34578;0.000;0.000;2023-08-30T00:29:32;1.75;;;1.42;;
48777;SDS011;34578;0.000;0.000;2023-08-30T00:34:34;1.83;;;1.30;;
48777;SDS011;34578;0.000;0.000;2023-08-30T00:39:37;2.43;;;1.10;;
48777;SDS011;34578;0.000;0.000;2023-08-30T00:44:37;2.00;;;1.50;;
48777;SDS011;34578;0.000;0.000;2023-08-30T00:49:38;2.75;;;1.45;;
48777;SDS011;34578;0.000;0.000;2023-08-30T00:54:40;3.95;;;1.38;;
48777;SDS011;34578;0.000;0.000;2023-08-30T00:59:41;1.23;;;1.10;;
48777;SDS011;34578;0.000;0.000;2023-08-30T01:04:41;3.05;;;1.52;;
48777;SDS011;34578;0.000;0.000;2023-08-30T01:09:42;2.07;;;1.53;;
48777;SDS011;34578;0.000;0.000;2023-08-30T01:14:46;1.70;;;1.10;;
48777;SDS011;34578;0.000;0.000;2023-08-30T01:19:56;10.85;;;1.42;;
48777;SDS011;34578;0.000;0.000;2023-08-30T01:30:34;1.88;;;1.20;;
48777;SDS011;34578;0.000;0.000;2023-08-30T01:35:37;3.90;;;1.67;;
48777;SDS011;34578;0.000;0.000;2023-08-30T01:40:42;2.08;;;1.05;;
48777;SDS011;34578;0.000;0.000;2023-08-30T01:45:44;1.48;;;1.02;;
48777;SDS011;34578;0.000;0.000;2023-08-30T01:50:44;4.10;;;1.50;;
48777;SDS011;34578;0.000;0.000;2023-08-30T01:55:45;1.80;;;1.30;;
48777;SDS011;34578;0.000;0.000;2023-08-30T02:00:46;3.17;;;1.02;;
48777;SDS011;34578;0.000;0.000;2023-08-30T02:11:31;1.98;;;1.17;;
48777;SDS011;34578;0.000;0.000;2023-08-30T02:16:34;1.75;;;1.20;;
48777;SDS011;34578;0.000;0.000;2023-08-30T02:21:36;1.65;;;1.10;;
48777;SDS011;34578;0.000;0.000;2023-08-30T02:26:37;1.48;;;1.20;;
48777;SDS011;34578;0.000;0.000;2023-08-30T02:31:37;1.67;;;1.13;;
48777;SDS011;34578;0.000;0.000;2023-08-30T02:36:38;1.63;;;1.07;;
48777;SDS011;34578;0.000;0.000;2023-08-30T02:41:38;1.63;;;0.83;;
48777;SDS011;34578;0.000;0.000;2023-08-30T02:46:40;1.23;;;1.00;;
48777;SDS011;34578;0.000;0.000;2023-08-30T02:51:41;1.98;;;1.35;;
48777;SDS011;34578;0.000;0.000;2023-08-30T02:56:42;1.57;;;0.87;;
48777;SDS011;34578;0.000;0.000;2023-08-30T03:01:43;1.40;;;0.95;;
48777;SDS011;34578;0.000;0.000;2023-08-30T03:06:45;1.58;;;1.13;;
48777;SDS011;34578;0.000;0.000;2023-08-30T03:11:47;1.77;;;0.90;;
48777;SDS011;34578;0.000;0.000;2023-08-30T03:16:47;2.13;;;1.27;;
48777;SDS011;34578;0.000;0.000;2023-08-30T03:21:48;2.17;;;0.95;;
48777;SDS011;34578;0.000;0.000;2023-08-30T03:26:48;1.47;;;0.90;;
48777;SDS011;34578;0.000;0.000;2023-08-30T03:31:48;1.13;;;1.00;;
48777;SDS011;34578;0.000;0.000;2023-08-30T03:36:49;2.20;;;0.83;;
48777;SDS011;34578;0.000;0.000;2023-08-30T03:41:54;1.27;;;0.80;;
48777;SDS011;34578;0.000;0.000;2023-08-30T03:46:54;0.80;;;0.80;;
48777;SDS011;34578;0.000;0.000;2023-08-30T03:51:56;1.40;;;1.00;;
48777;SDS011;34578;0.000;0.000;2023-08-30T03:56:57;2.45;;;0.95;;
48777;SDS011;34578;0.000;0.000;2023-08-30T04:01:57;1.47;;;1.10;;
48777;SDS011;34578;0.000;0.000;2023-08-30T04:06:58;1.57;;;1.10;;
48777;SDS011;34578;0.000;0.000;2023-08-30T04:11:58;2.10;;;1.00;;
48777;SDS011;34578;0.000;0.000;2023-08-30T04:17:00;1.15;;;0.90;;
48777;SDS011;34578;0.000;0.000;2023-08-30T04:22:00;7.50;;;2.60;;
48777;SDS011;34578;0.000;0.000;2023-08-30T04:27:01;0.90;;;0.67;;
48777;SDS011;34578;0.000;0.000;2023-08-30T04:32:01;1.70;;;0.70;;
48777;SDS011;34578;0.000;0.000;2023-08-30T04:37:02;0.87;;;0.80;;
48777;SDS011;34578;0.000;0.000;2023-08-30T04:42:03;1.00;;;0.68;;
48777;SDS011;34578;0.000;0.000;2023-08-30T04:47:04;2.05;;;0.70;;
48777;SDS011;34578;0.000;0.000;2023-08-30T04:52:04;0.60;;;0.60;;
48777;SDS011;34578;0.000;0.000;2023-08-30T04:57:05;1.20;;;0.77;;
48777;SDS011;34578;0.000;0.000;2023-08-30T05:02:07;1.23;;;0.63;;
48777;SDS011;34578;0.000;0.000;2023-08-30T05:07:14;2.05;;;0.70;;
48777;SDS011;34578;0.000;0.000;2023-08-30T05:12:14;1.57;;;0.70;;
48777;SDS011;34578;0.000;0.000;2023-08-30T05:17:15;0.70;;;0.70;;
48777;SDS011;34578;0.000;0.000;2023-08-30T05:22:15;2.37;;;0.80;;
48777;SDS011;34578;0.000;0.000;2023-08-30T05:27:16;2.77;;;1.43;;
48777;SDS011;34578;0.000;0.000;2023-08-30T05:32:18;2.08;;;0.60;;
48777;SDS011;34578;0.000;0.000;2023-08-30T05:37:41;0.88;;;0.63;;
48777;SDS011;34578;0.000;0.000;2023-08-30T05:43:00;0.60;;;0.52;;
48777;SDS011;34578;0.000;0.000;2023-08-30T05:48:00;1.07;;;0.73;;
48777;SDS011;34578;0.000;0.000;2023-08-30T05:53:01;0.90;;;0.70;;
48777;SDS011;34578;0.000;0.000;2023-08-30T05:58:01;1.90;;;0.80;;
48777;SDS011;34578;0.000;0.000;2023-08-30T06:03:02;1.67;;;0.60;;
48777;SDS011;34578;0.000;0.000;2023-08-30T06:08:04;0.85;;;0.80;;
48777;SDS011;34578;0.000;0.000;2023-08-30T06:13:05;0.93;;;0.82;;
48777;SDS011;34578;0.000;0.000;2023-08-30T06:18:05;1.37;;;0.67;;
48777;SDS011;34578;0.000;0.000;2023-08-30T06:23:06;2.13;;;1.13;;
48777;SDS011;34578;0.000;0.000;2023-08-30T06:28:06;0.90;;;0.70;;
48777;SDS011;34578;0.000;0.000;2023-08-30T06:33:07;0.85;;;0.80;;
48777;SDS011;34578;0.000;0.000;2023-08-30T06:38:07;1.17;;;0.80;;
48777;SDS011;34578;0.000;0.000;2023-08-30T06:43:08;1.75;;;0.90;;
48777;SDS011;34578;0.000;0.000;2023-08-30T06:48:08;1.30;;;0.82;;
48777;SDS011;34578;0.000;0.000;2023-08-30T06:53:09;1.30;;;0.80;;
48777;SDS011;34578;0.000;0.000;2023-08-30T06:58:09;1.83;;;0.80;;
48777;SDS011;34578;0.000;0.000;2023-08-30T07:03:10;0.67;;;0.67;;
48777;SDS011;34578;0.000;0.000;2023-08-30T07:08:10;1.50;;;1.13;;
48777;SDS011;34578;0.000;0.000;2023-08-30T07:13:10;1.23;;;1.00;;
48777;SDS011;34578;0.000;0.000;2023-08-30T07:18:11;1.50;;;1.00;;
48777;SDS011;34578;0.000;0.000;2023-08-30T07:23:12;4.40;;;2.90;;
48777;SDS011;34578;0.000;0.000;2023-08-30T07:28:12;1.57;;;0.90;;
48777;SDS011;34578;0.000;0.000;2023-08-30T07:33:12;3.50;;;1.30;;
48777;SDS011;34578;0.000;0.000;2023-08-30T07:38:13;2.20;;;1.07;;
48777;SDS011;34578;0.000;0.000;2023-08-30T07:43:13;19.63;;;2.63;;
48777;SDS011;34578;0.000;0.000;2023-08-30T07:48:14;11.97;;;2.30;;
48777;SDS011;34578;0.000;0.000;2023-08-30T07:53:14;10.70;;;1.97;;
48777;SDS011;34578;0.000;0.000;2023-08-30T07:58:14;9.60;;;2.57;;
48777;SDS011;34578;0.000;0.000;2023-08-30T08:03:15;5.70;;;1.20;;
48777;SDS011;34578;0.000;0.000;2023-08-30T08:08:15;6.20;;;1.23;;
48777;SDS011;34578;0.000;0.000;2023-08-30T08:13:16;1.77;;;1.10;;
48777;SDS011;34578;0.000;0.000;2023-08-30T08:18:17;8.90;;;1.07;;
48777;SDS011;34578;0.000;0.000;2023-08-30T08:23:17;3.50;;;1.30;;
48777;SDS011;34578;0.000;0.000;2023-08-30T08:28:18;3.42;;;1.20;;
48777;SDS011;34578;0.000;0.000;2023-08-30T08:33:18;3.53;;;1.00;;
48777;SDS011;34578;0.000;0.000;2023-08-30T08:38:19;5.03;;;1.35;;
48777;SDS011;34578;0.000;0.000;2023-08-30T08:43:19;4.97;;;1.20;;
48777;SDS011;34578;0.000;0.000;2023-08-30T08:48:20;4.05;;;1.42;;
48777;SDS011;34578;0.000;0.000;2023-08-30T08:53:22;1.88;;;1.33;;
48777;SDS011;34578;0.000;0.000;2023-08-30T08:58:23;2.15;;;1.80;;
48777;SDS011;34578;0.000;0.000;2023-08-30T09:03:24;4.65;;;1.70;;
48777;SDS011;34578;0.000;0.000;2023-08-30T09:08:24;1.92;;;1.20;;
48777;SDS011;34578;0.000;0.000;2023-08-30T09:13:25;3.28;;;2.63;;
48777;SDS011;34578;0.000;0.000;2023-08-30T09:18:26;5.17;;;2.30;;
48777;SDS011;34578;0.000;0.000;2023-08-30T09:23:27;11.40;;;2.38;;
48777;SDS011;34578;0.000;0.000;2023-08-30T09:28:28;3.30;;;1.87;;
48777;SDS011;34578;0.000;0.000;2023-08-30T09:33:32;2.58;;;1.65;;
48777;SDS011;34578;0.000;0.000;2023-08-30T09:38:33;2.22;;;1.60;;
48777;SDS011;34578;0.000;0.000;2023-08-30T09:43:34;3.00;;;1.70;;
48777;SDS011;34578;0.000;0.000;2023-08-30T09:48:34;2.88;;;2.00;;
48777;SDS011;34578;0.000;0.000;2023-08-30T09:53:40;3.40;;;1.70;;
48777;SDS011;34578;0.000;0.000;2023-08-30T10:03:44;2.23;;;1.50;;
48777;SDS011;34578;0.000;0.000;2023-08-30T10:08:45;4.70;;;1.98;;
48777;SDS011;34578;0.000;0.000;2023-08-30T10:13:49;4.13;;;1.65;;
48777;SDS011;34578;0.000;0.000;2023-08-30T10:18:52;2.05;;;1.80;;
48777;SDS011;34578;0.000;0.000;2023-08-30T10:23:59;3.80;;;1.73;;
48777;SDS011;34578;0.000;0.000;2023-08-30T10:29:01;3.72;;;1.70;;
48777;SDS011;34578;0.000;0.000;2023-08-30T10:34:11;11.90;;;3.25;;
48777;SDS011;34578;0.000;0.000;2023-08-30T10:39:14;12.23;;;2.42;;
48777;SDS011;34578;0.000;0.000;2023-08-30T10:44:14;10.70;;;2.88;;
48777;SDS011;34578;0.000;0.000;2023-08-30T10:49:21;7.13;;;2.40;;
48777;SDS011;34578;0.000;0.000;2023-08-30T10:54:23;4.53;;;3.05;;
48777;SDS011;34578;0.000;0.000;2023-08-30T10:59:24;8.68;;;2.60;;
48777;SDS011;34578;0.000;0.000;2023-08-30T11:04:24;7.22;;;2.72;;
48777;SDS011;34578;0.000;0.000;2023-08-30T11:09:25;5.83;;;2.20;;
48777;SDS011;34578;0.000;0.000;2023-08-30T11:14:26;18.35;;;3.00;;
48777;SDS011;34578;0.000;0.000;2023-08-30T11:19:29;9.87;;;2.40;;
48777;SDS011;34578;0.000;0.000;2023-08-30T11:24:30;10.23;;;3.08;;
48777;SDS011;34578;0.000;0.000;2023-08-30T11:29:30;7.87;;;2.60;;
48777;SDS011;34578;0.000;0.000;2023-08-30T11:34:31;6.13;;;2.78;;
48777;SDS011;34578;0.000;0.000;2023-08-30T11:39:31;12.07;;;2.43;;
48777;SDS011;34578;0.000;0.000;2023-08-30T11:44:32;5.60;;;2.63;;
48777;SDS011;34578;0.000;0.000;2023-08-30T11:49:32;19.50;;;3.33;;
48777;SDS011;34578;0.000;0.000;2023-08-30T11:54:34;10.70;;;3.03;;
48777;SDS011;34578;0.000;0.000;2023-08-30T11:59:34;4.90;;;2.13;;
48777;SDS011;34578;0.000;0.000;2023-08-30T12:04:41;44.08;;;3.80;;
48777;SDS011;34578;0.000;0.000;2023-08-30T12:09:45;12.52;;;3.00;;
48777;SDS011;34578;0.000;0.000;2023-08-30T12:14:53;5.53;;;2.00;;
48777;SDS011;34578;0.000;0.000;2023-08-30T12:19:55;21.50;;;3.03;;
48777;SDS011;34578;0.000;0.000;2023-08-30T12:24:58;29.77;;;6.03;;
48777;SDS011;34578;0.000;0.000;2023-08-30T12:29:59;27.90;;;4.63;;
48777;SDS011;34578;0.000;0.000;2023-08-30T12:35:01;23.88;;;3.80;;
48777;SDS011;34578;0.000;0.000;2023-08-30T12:40:01;26.47;;;4.60;;
48777;SDS011;34578;0.000;0.000;2023-08-30T12:45:02;32.27;;;4.90;;
48777;SDS011;34578;0.000;0.000;2023-08-30T12:50:03;16.85;;;3.10;;
48777;SDS011;34578;0.000;0.000;2023-08-30T12:55:04;10.70;;;3.72;;
48777;SDS011;34578;0.000;0.000;2023-08-30T13:00:05;22.70;;;4.22;;
48777;SDS011;34578;0.000;0.000;2023-08-30T13:05:06;13.73;;;2.92;;
48777;SDS011;34578;0.000;0.000;2023-08-30T13:10:07;10.38;;;2.80;;
48777;SDS011;34578;0.000;0.000;2023-08-30T13:15:07;10.55;;;3.45;;
48777;SDS011;34578;0.000;0.000;2023-08-30T13:20:08;8.98;;;2.70;;
48777;SDS011;34578;0.000;0.000;2023-08-30T13:25:09;14.75;;;2.25;;
48777;SDS011;34578;0.000;0.000;2023-08-30T13:30:10;11.10;;;2.30;;
48777;SDS011;34578;0.000;0.000;2023-08-30T13:35:10;11.82;;;2.85;;
48777;SDS011;34578;0.000;0.000;2023-08-30T13:40:11;7.57;;;1.93;;
48777;SDS011;34578;0.000;0.000;2023-08-30T13:45:11;10.15;;;2.80;;
48777;SDS011;34578;0.000;0.000;2023-08-30T13:50:13;8.93;;;3.75;;
48777;SDS011;34578;0.000;0.000;2023-08-30T13:55:13;5.50;;;2.37;;
48777;SDS011;34578;0.000;0.000;2023-08-30T14:00:14;3.33;;;1.30;;
48777;SDS011;34578;0.000;0.000;2023-08-30T14:05:15;7.35;;;1.88;;
48777;SDS011;34578;0.000;0.000;2023-08-30T14:10:15;4.85;;;1.80;;
48777;SDS011;34578;0.000;0.000;2023-08-30T14:15:18;3.15;;;1.48;;
48777;SDS011;34578;0.000;0.000;2023-08-30T14:20:18;7.07;;;2.10;;
48777;SDS011;34578;0.000;0.000;2023-08-30T14:25:19;5.80;;;1.60;;
48777;SDS011;34578;0.000;0.000;2023-08-30T14:30:19;2.07;;;1.27;;
48777;SDS011;34578;0.000;0.000;2023-08-30T14:35:19;7.67;;;1.60;;
48777;SDS011;34578;0.000;0.000;2023-08-30T14:40:24;5.53;;;1.55;;
48777;SDS011;34578;0.000;0.000;2023-08-30T14:45:24;8.27;;;1.47;;
48777;SDS011;34578;0.000;0.000;2023-08-30T14:50:24;5.00;;;1.40;;
48777;SDS011;34578;0.000;0.000;2023-08-30T14:55:25;3.00;;;1.40;;
48777;SDS011;34578;0.000;0.000;2023-08-30T15:00:26;11.57;;;2.13;;
48777;SDS011;34578;0.000;0.000;2023-08-30T15:05:26;5.20;;;1.40;;
48777;SDS011;34578;0.000;0.000;2023-08-30T15:10:26;3.67;;;1.80;;
48777;SDS011;34578;0.000;0.000;2023-08-30T15:15:27;7.23;;;2.73;;
48777;SDS011;34578;0.000;0.000;2023-08-30T15:20:29;4.78;;;1.65;;
48777;SDS011;34578;0.000;0.000;2023-08-30T15:25:30;5.87;;;1.40;;
48777;SDS011;34578;0.000;0.000;2023-08-30T15:30:31;7.93;;;1.75;;
48777;SDS011;34578;0.000;0.000;2023-08-30T15:35:31;5.20;;;1.47;;
48777;SDS011;34578;0.000;0.000;2023-08-30T15:40:32;4.80;;;1.47;;
48777;SDS011;34578;0.000;0.000;2023-08-30T15:45:33;5.60;;;1.30;;
48777;SDS011;34578;0.000;0.000;2023-08-30T15:50:35;2.95;;;1.27;;
48777;SDS011;34578;0.000;0.000;2023-08-30T15:55:35;3.70;;;1.40;;
48777;SDS011;34578;0.000;0.000;2023-08-30T16:00:37;4.43;;;1.20;;
48777;SDS011;34578;0.000;0.000;2023-08-30T16:05:41;3.58;;;1.30;;
48777;SDS011;34578;0.000;0.000;2023-08-30T16:10:42;2.90;;;1.23;;
48777;SDS011;34578;0.000;0.000;2023-08-30T16:15:42;2.73;;;1.30;;
48777;SDS011;34578;0.000;0.000;2023-08-30T16:20:42;6.47;;;1.53;;
48777;SDS011;34578;0.000;0.000;2023-08-30T16:25:43;2.35;;;1.40;;
48777;SDS011;34578;0.000;0.000;2023-08-30T16:30:43;1.80;;;1.30;;
48777;SDS011;34578;0.000;0.000;2023-08-30T16:35:44;4.90;;;1.53;;
48777;SDS011;34578;0.000;0.000;2023-08-30T16:40:47;2.33;;;1.55;;
48777;SDS011;34578;0.000;0.000;2023-08-30T16:45:47;2.33;;;1.40;;
48777;SDS011;34578;0.000;0.000;2023-08-30T16:50:47;1.73;;;1.33;;
48777;SDS011;34578;0.000;0.000;2023-08-30T16:55:49;3.88;;;1.52;;
48777;SDS011;34578;0.000;0.000;2023-08-30T17:00:49;2.87;;;1.60;;
48777;SDS011;34578;0.000;0.000;2023-08-30T17:05:49;3.57;;;1.50;;
48777;SDS011;34578;0.000;0.000;2023-08-30T17:10:50;2.83;;;1.33;;
48777;SDS011;34578;0.000;0.000;2023-08-30T17:15:50;3.77;;;1.50;;
48777;SDS011;34578;0.000;0.000;2023-08-30T17:20:50;5.00;;;1.90;;
48777;SDS011;34578;0.000;0.000;2023-08-30T17:25:51;3.47;;;1.77;;
48777;SDS011;34578;0.000;0.000;2023-08-30T17:30:52;4.40;;;1.60;;
48777;SDS011;34578;0.000;0.000;2023-08-30T17:35:53;2.30;;;1.27;;
48777;SDS011;34578;0.000;0.000;2023-08-30T17:40:55;3.53;;;1.45;;
48777;SDS011;34578;0.000;0.000;2023-08-30T17:45:55;5.77;;;2.13;;
48777;SDS011;34578;0.000;0.000;2023-08-30T17:50:55;4.17;;;1.63;;
48777;SDS011;34578;0.000;0.000;2023-08-30T17:55:56;1.65;;;1.30;;
48777;SDS011;34578;0.000;0.000;2023-08-30T18:00:57;4.38;;;1.60;;
48777;SDS011;34578;0.000;0.000;2023-08-30T18:05:59;8.02;;;1.65;;
48777;SDS011;34578;0.000;0.000;2023-08-30T18:11:01;2.20;;;1.33;;
48777;SDS011;34578;0.000;0.000;2023-08-30T18:16:01;6.57;;;1.57;;
48777;SDS011;34578;0.000;0.000;2023-08-30T18:21:02;5.05;;;2.33;;
48777;SDS011;34578;0.000;0.000;2023-08-30T18:26:02;7.03;;;1.50;;
48777;SDS011;34578;0.000;0.000;2023-08-30T18:31:02;10.60;;;2.20;;
48777;SDS011;34578;0.000;0.000;2023-08-30T18:36:03;4.38;;;1.52;;
48777;SDS011;34578;0.000;0.000;2023-08-30T18:41:05;5.40;;;2.15;;
48777;SDS011;34578;0.000;0.000;2023-08-30T18:46:05;7.17;;;1.87;;
48777;SDS011;34578;0.000;0.000;2023-08-30T18:51:06;5.40;;;1.60;;
48777;SDS011;34578;0.000;0.000;2023-08-30T18:56:06;5.43;;;2.17;;
48777;SDS011;34578;0.000;0.000;2023-08-30T19:01:06;8.35;;;1.70;;
48777;SDS011;34578;0.000;0.000;2023-08-30T19:06:07;4.73;;;1.90;;
48777;SDS011;34578;0.000;0.000;2023-08-30T19:11:07;4.82;;;2.00;;
48777;SDS011;34578;0.000;0.000;2023-08-30T19:16:09;3.88;;;1.52;;
48777;SDS011;34578;0.000;0.000;2023-08-30T19:21:10;5.73;;;1.73;;
48777;SDS011;34578;0.000;0.000;2023-08-30T19:26:11;3.03;;;1.85;;
48777;SDS011;34578;0.000;0.000;2023-08-30T19:31:12;4.63;;;1.70;;
48777;SDS011;34578;0.000;0.000;2023-08-30T19:36:12;5.80;;;2.00;;
48777;SDS011;34578;0.000;0.000;2023-08-30T19:41:18;7.50;;;2.20;;
48777;SDS011;34578;0.000;0.000;2023-08-30T19:46:18;6.28;;;1.83;;
48777;SDS011;34578;0.000;0.000;2023-08-30T19:51:19;3.57;;;1.70;;
48777;SDS011;34578;0.000;0.000;2023-08-30T19:56:19;4.13;;;2.53;;
48777;SDS011;34578;0.000;0.000;2023-08-30T20:01:20;5.30;;;1.85;;
48777;SDS011;34578;0.000;0.000;2023-08-30T20:06:20;3.95;;;1.60;;
48777;SDS011;34578;0.000;0.000;2023-08-30T20:11:20;5.30;;;1.60;;
48777;SDS011;34578;0.000;0.000;2023-08-30T20:16:22;8.10;;;2.08;;
48777;SDS011;34578;0.000;0.000;2023-08-30T20:21:22;3.57;;;1.70;;
48777;SDS011;34578;0.000;0.000;2023-08-30T20:26:22;6.33;;;1.77;;
48777;SDS011;34578;0.000;0.000;2023-08-30T20:31:23;5.90;;;2.43;;
48777;SDS011;34578;0.000;0.000;2023-08-30T20:36:23;3.73;;;1.90;;
48777;SDS011;34578;0.000;0.000;2023-08-30T20:41:24;6.33;;;2.40;;
48777;SDS011;34578;0.000;0.000;2023-08-30T20:46:24;4.50;;;1.83;;
48777;SDS011;34578;0.000;0.000;2023-08-30T20:51:25;4.65;;;1.65;;
48777;SDS011;34578;0.000;0.000;2023-08-30T20:56:25;4.80;;;1.87;;
48777;SDS011;34578;0.000;0.000;2023-08-30T21:01:27;3.95;;;1.60;;
48777;SDS011;34578;0.000;0.000;2023-08-30T21:06:30;4.70;;;1.83;;
48777;SDS011;34578;0.000;0.000;2023-08-30T21:11:30;4.63;;;1.73;;
48777;SDS011;34578;0.000;0.000;2023-08-30T21:16:30;4.23;;;1.67;;
48777;SDS011;34578;0.000;0.000;2023-08-30T21:21:30;4.37;;;1.70;;
48777;SDS011;34578;0.000;0.000;2023-08-30T21:26:31;4.87;;;1.97;;
48777;SDS011;34578;0.000;0.000;2023-08-30T21:31:31;2.83;;;1.63;;
48777;SDS011;34578;0.000;0.000;2023-08-30T21:36:32;9.10;;;2.60;;
48777;SDS011;34578;0.000;0.000;2023-08-30T21:41:32;11.23;;;3.20;;
48777;SDS011;34578;0.000;0.000;2023-08-30T21:46:32;6.80;;;1.97;;
48777;SDS011;34578;0.000;0.000;2023-08-30T21:51:33;5.43;;;2.20;;
48777;SDS011;34578;0.000;0.000;2023-08-30T21:56:36;5.05;;;1.70;;
48777;SDS011;34578;0.000;0.000;2023-08-30T22:01:37;6.15;;;2.00;;
48777;SDS011;34578;0.000;0.000;2023-08-30T22:06:37;5.33;;;1.83;;
48777;SDS011;34578;0.000;0.000;2023-08-30T22:11:37;8.63;;;2.03;;
48777;SDS011;34578;0.000;0.000;2023-08-30T22:16:38;5.68;;;2.40;;
48777;SDS011;34578;0.000;0.000;2023-08-30T22:21:39;5.65;;;1.83;;
48777;SDS011;34578;0.000;0.000;2023-08-30T22:26:39;6.33;;;1.93;;
48777;SDS011;34578;0.000;0.000;2023-08-30T22:31:40;6.43;;;1.93;;
48777;SDS011;34578;0.000;0.000;2023-08-30T22:36:40;7.37;;;1.70;;
48777;SDS011;34578;0.000;0.000;2023-08-30T22:41:41;4.03;;;1.60;;
48777;SDS011;34578;0.000;0.000;2023-08-30T22:46:41;3.73;;;1.40;;
48777;SDS011;34578;0.000;0.000;2023-08-30T22:51:42;5.60;;;1.57;;
48777;SDS011;34578;0.000;0.000;2023-08-30T22:56:43;4.68;;;1.65;;
48777;SDS011;34578;0.000;0.000;2023-08-30T23:01:45;5.35;;;1.90;;
48777;SDS011;34578;0.000;0.000;2023-08-30T23:06:45;2.42;;;1.40;;
48777;SDS011;34578;0.000;0.000;2023-08-30T23:11:46;4.88;;;1.70;;
48777;SDS011;34578;0.000;0.000;2023-08-30T23:16:47;2.33;;;1.48;;
48777;SDS011;34578;0.000;0.000;2023-08-30T23:21:48;6.07;;;1.70;;
48777;SDS011;34578;0.000;0.000;2023-08-30T23:26:50;3.60;;;2.05;;
48777;SDS011;34578;0.000;0.000;2023-08-30T23:31:50;5.23;;;1.90;;
48777;SDS011;34578;0.000;0.000;2023-08-30T23:36:51;2.80;;;1.85;;
48777;SDS011;34578;0.000;0.000;2023-08-30T23:41:51;3.42;;;1.80;;
48777;SDS011;34578;0.000;0.000;2023-08-30T23:46:52;3.10;;;1.20;;
48777;SDS011;34578;0.000;0.000;2023-08-30T23:51:52;2.80;;;1.30;;
48777;SDS011;34578;0.000;0.000;2023-08-30T23:56:53;3.35;;;1.80;;
